createdAt,value
2023-04-15T00:00:58.014Z,9.53
2023-04-15T00:03:46.853Z,9.58
2023-04-15T00:06:35.247Z,9.58
2023-04-15T00:09:23.100Z,9.59
2023-04-15T00:12:13.772Z,9.65
2023-04-15T00:15:03.284Z,9.63
2023-04-15T00:17:52.361Z,9.57
2023-04-15T00:20:43.257Z,9.63
2023-04-15T00:23:31.844Z,9.45
2023-04-15T00:26:20.140Z,9.46
2023-04-15T00:29:07.445Z,9.44
2023-04-15T00:31:57.313Z,9.48
2023-04-15T00:34:46.297Z,9.48
2023-04-15T00:37:37.258Z,9.53
2023-04-15T00:40:26.258Z,9.49
2023-04-15T00:43:13.951Z,9.51
2023-04-15T00:46:04.168Z,9.42
2023-04-15T00:48:55.066Z,9.48
2023-04-15T00:51:48.323Z,9.44
2023-04-15T00:54:36.640Z,9.35
2023-04-15T00:57:24.325Z,9.39
2023-04-15T01:00:13.986Z,9.32
2023-04-15T01:03:02.052Z,9.31
2023-04-15T01:05:58.183Z,9.31
2023-04-15T01:08:46.030Z,9.31
2023-04-15T01:11:34.463Z,9.31
2023-04-15T01:14:27.553Z,9.34
2023-04-15T01:17:15.596Z,9.28
2023-04-15T01:20:10.655Z,9.37
2023-04-15T01:23:00.843Z,9.19
2023-04-15T01:25:50.282Z,9.27
2023-04-15T01:28:40.061Z,9.17
2023-04-15T01:31:27.478Z,9.04
2023-04-15T01:34:19.492Z,8.91
2023-04-15T01:37:11.218Z,8.70
2023-04-15T01:40:01.979Z,8.59
2023-04-15T01:42:51.067Z,8.48
2023-04-15T01:45:39.036Z,8.43
2023-04-15T01:48:33.434Z,8.37
2023-04-15T01:51:20.990Z,8.38
2023-04-15T01:54:08.398Z,8.35
2023-04-15T01:56:56.820Z,8.34
2023-04-15T01:59:47.737Z,8.32
2023-04-15T02:02:36.033Z,8.29
2023-04-15T02:05:24.383Z,8.32
2023-04-15T02:08:12.565Z,8.32
2023-04-15T02:11:01.271Z,8.38
2023-04-15T02:13:48.636Z,8.40
2023-04-15T02:17:02.763Z,8.40
2023-04-15T02:19:50.464Z,8.42
2023-04-15T02:22:38.026Z,8.37
2023-04-15T02:25:25.412Z,8.34
2023-04-15T02:28:12.909Z,8.32
2023-04-15T02:31:04.716Z,8.29
2023-04-15T02:33:56.924Z,8.29
2023-04-15T02:36:44.418Z,8.25
2023-04-15T02:39:35.358Z,8.25
2023-04-15T02:42:23.313Z,8.23
2023-04-15T02:45:13.224Z,8.16
2023-04-15T02:48:06.336Z,8.15
2023-04-15T02:51:11.536Z,8.10
2023-04-15T02:53:58.923Z,8.10
2023-04-15T02:56:50.757Z,8.07
2023-04-15T02:59:39.691Z,8.07
2023-04-15T03:02:33.629Z,8.04
2023-04-15T03:05:21.243Z,7.98
2023-04-15T03:08:15.223Z,7.97
2023-04-15T03:11:02.938Z,7.93
2023-04-15T03:14:07.582Z,7.94
2023-04-15T03:16:55.066Z,7.91
2023-04-15T03:19:42.796Z,7.90
2023-04-15T03:22:31.799Z,7.89
2023-04-15T03:25:24.168Z,7.91
2023-04-15T03:28:29.178Z,7.87
2023-04-15T03:31:17.471Z,7.84
2023-04-15T03:34:16.157Z,7.83
2023-04-15T03:37:07.743Z,7.78
2023-04-15T03:39:56.772Z,7.78
2023-04-15T03:42:46.155Z,7.74
2023-04-15T03:45:34.507Z,7.75
2023-04-15T03:48:21.761Z,7.72
2023-04-15T03:51:09.367Z,7.68
2023-04-15T03:53:57.122Z,7.67
2023-04-15T03:56:44.815Z,7.67
2023-04-15T03:59:34.186Z,7.72
2023-04-15T04:02:23.701Z,7.74
2023-04-15T04:05:15.120Z,7.70
2023-04-15T04:08:02.850Z,7.66
2023-04-15T04:10:50.955Z,7.66
2023-04-15T04:16:42.246Z,7.64
2023-04-15T04:19:30.180Z,7.65
2023-04-15T04:22:17.739Z,7.63
2023-04-15T04:25:22.036Z,7.64
2023-04-15T04:28:09.496Z,7.63
2023-04-15T04:31:04.032Z,7.65
2023-04-15T04:33:53.817Z,7.70
2023-04-15T04:36:46.796Z,7.70
2023-04-15T04:39:33.980Z,7.70
2023-04-15T04:42:22.383Z,7.72
2023-04-15T04:45:10.559Z,7.68
2023-04-15T04:48:01.158Z,7.69
2023-04-15T04:50:52.698Z,7.64
2023-04-15T04:53:40.173Z,7.67
2023-04-15T04:56:27.696Z,7.75
2023-04-15T04:59:15.163Z,7.70
2023-04-15T05:02:03.758Z,7.71
2023-04-15T05:04:54.741Z,7.71
2023-04-15T05:07:44.304Z,7.70
2023-04-15T05:10:34.482Z,7.72
2023-04-15T05:13:22.527Z,7.73
2023-04-15T05:16:15.362Z,7.72
2023-04-15T05:19:03.244Z,7.71
2023-04-15T05:21:51.433Z,7.69
2023-04-15T05:24:40.687Z,7.70
2023-04-15T05:27:28.542Z,7.68
2023-04-15T05:30:25.592Z,7.64
2023-04-15T05:33:20.613Z,7.67
2023-04-15T05:36:08.537Z,7.68
2023-04-15T05:38:56.474Z,7.70
2023-04-15T05:41:48.312Z,7.78
2023-04-15T05:44:37.032Z,7.82
2023-04-15T05:47:24.718Z,7.83
2023-04-15T05:50:12.553Z,7.86
2023-04-15T05:53:02.326Z,7.89
2023-04-15T05:55:50.409Z,7.94
2023-04-15T05:58:39.303Z,7.98
2023-04-15T06:05:11.857Z,8.09
2023-04-15T06:08:05.095Z,8.15
2023-04-15T06:11:12.336Z,8.19
2023-04-15T06:14:01.592Z,8.25
2023-04-15T06:16:48.947Z,8.28
2023-04-15T06:19:41.952Z,8.35
2023-04-15T06:22:46.917Z,8.40
2023-04-15T06:25:36.894Z,8.43
2023-04-15T06:29:35.360Z,8.47
2023-04-15T06:31:46.548Z,8.56
2023-04-15T06:34:57.818Z,8.62
2023-04-15T06:37:45.560Z,8.69
2023-04-15T06:40:48.517Z,8.78
2023-04-15T06:43:42.676Z,8.84
2023-04-15T06:46:34.757Z,8.89
2023-04-15T06:49:26.915Z,8.93
2023-04-15T06:52:16.612Z,9.02
2023-04-15T06:55:39.638Z,9.12
2023-04-15T06:58:29.508Z,9.16
2023-04-15T07:01:17.304Z,9.18
2023-04-15T07:04:06.298Z,9.23
2023-04-15T07:06:58.112Z,9.26
2023-04-15T07:09:56.900Z,9.30
2023-04-15T07:12:48.946Z,9.39
2023-04-15T07:15:39.628Z,9.43
2023-04-15T07:18:28.329Z,9.43
2023-04-15T07:21:20.816Z,9.57
2023-04-15T07:26:58.635Z,9.73
2023-04-15T07:29:48.188Z,9.84
2023-04-15T07:32:36.093Z,9.85
2023-04-15T07:35:32.064Z,9.81
2023-04-15T07:38:19.946Z,9.92
2023-04-15T07:41:11.079Z,10.03
2023-04-15T07:44:00.710Z,10.06
2023-04-15T07:46:48.783Z,9.98
2023-04-15T07:49:40.413Z,10.08
2023-04-15T07:52:28.444Z,10.09
2023-04-15T07:55:19.712Z,10.18
2023-04-15T07:58:07.131Z,10.06
2023-04-15T08:00:57.782Z,10.25
2023-04-15T08:03:49.487Z,10.29
2023-04-15T08:06:57.553Z,10.20
2023-04-15T08:09:52.897Z,10.37
2023-04-15T08:16:13.030Z,10.45
2023-04-15T08:19:04.971Z,10.62
2023-04-15T08:21:52.584Z,10.47
2023-04-15T08:24:39.827Z,10.50
2023-04-15T08:27:27.479Z,10.57
2023-04-15T08:30:18.549Z,10.39
2023-04-15T08:33:36.321Z,10.39
2023-04-15T08:36:28.139Z,10.37
2023-04-15T08:39:15.736Z,10.40
2023-04-15T08:42:05.970Z,10.43
2023-04-15T08:45:32.787Z,10.60
2023-04-15T08:48:20.349Z,10.58
2023-04-15T08:51:09.295Z,10.44
2023-04-15T08:54:02.108Z,10.67
2023-04-15T08:56:51.026Z,10.63
2023-04-15T08:59:40.618Z,10.88
2023-04-15T09:02:30.092Z,10.83
2023-04-15T09:05:18.733Z,10.77
2023-04-15T09:08:09.180Z,10.74
2023-04-15T09:11:03.899Z,10.78
2023-04-15T09:14:04.074Z,10.94
2023-04-15T09:17:01.078Z,10.88
2023-04-15T09:20:10.913Z,10.90
2023-04-15T09:22:58.795Z,11.07
2023-04-15T09:25:50.919Z,10.94
2023-04-15T09:28:51.253Z,11.03
2023-04-15T09:31:44.265Z,11.21
2023-04-15T09:34:39.646Z,11.47
2023-04-15T09:37:35.509Z,11.40
2023-04-15T09:40:33.731Z,11.81
2023-04-15T09:43:21.526Z,11.89
2023-04-15T09:46:10.522Z,11.86
2023-04-15T09:49:07.966Z,11.83
2023-04-15T09:52:05.588Z,11.77
2023-04-15T09:54:56.659Z,12.12
2023-04-15T09:57:47.444Z,11.90
2023-04-15T10:00:35.327Z,11.58
2023-04-15T10:03:29.612Z,11.68
2023-04-15T10:12:54.672Z,12.08
2023-04-15T10:15:48.599Z,12.30
2023-04-15T10:19:03.621Z,11.91
2023-04-15T10:21:54.567Z,12.44
2023-04-15T10:24:49.494Z,12.06
2023-04-15T11:12:37.178Z,12.63
2023-04-15T11:20:10.228Z,12.70
2023-04-15T11:24:15.848Z,12.33
2023-04-15T11:27:03.326Z,12.42
2023-04-15T11:29:54.301Z,12.79
2023-04-15T11:32:44.740Z,12.74
2023-04-15T11:35:33.821Z,12.49
2023-04-15T11:38:56.541Z,12.94
2023-04-15T11:41:49.825Z,12.97
2023-04-15T11:44:37.505Z,12.96
2023-04-15T11:47:32.267Z,12.64
2023-04-15T11:50:25.614Z,12.90
2023-04-15T11:53:16.967Z,12.96
2023-04-15T11:59:30.239Z,12.74
2023-04-15T12:02:39.353Z,12.99
2023-04-15T12:05:27.274Z,13.00
2023-04-15T12:08:54.565Z,12.77
2023-04-15T12:11:46.586Z,12.82
2023-04-15T12:14:36.723Z,12.96
2023-04-15T12:17:24.642Z,12.25
2023-04-15T12:20:14.391Z,12.74
2023-04-15T12:23:06.451Z,13.16
2023-04-15T12:26:16.580Z,12.76
2023-04-15T12:29:08.409Z,12.46
2023-04-15T12:31:57.763Z,12.67
2023-04-15T12:34:50.721Z,12.55
2023-04-15T12:37:51.000Z,13.02
2023-04-15T12:40:39.042Z,13.15
2023-04-15T12:43:48.151Z,13.09
2023-04-15T12:47:00.518Z,12.74
2023-04-15T12:49:49.760Z,13.05
2023-04-15T12:52:37.588Z,12.93
2023-04-15T12:55:32.804Z,12.93
2023-04-15T12:58:37.286Z,12.78
2023-04-15T13:01:32.572Z,13.09
2023-04-15T13:04:25.254Z,13.18
2023-04-15T13:07:16.011Z,13.04
2023-04-15T13:10:03.360Z,12.85
2023-04-15T13:12:53.706Z,13.09
2023-04-15T13:15:41.403Z,13.17
2023-04-15T13:18:31.609Z,12.89
2023-04-15T13:21:22.663Z,13.04
2023-04-15T13:24:10.118Z,12.78
2023-04-15T13:26:59.758Z,12.76
2023-04-15T13:29:53.013Z,12.68
2023-04-15T13:32:40.654Z,12.56
2023-04-15T13:35:33.235Z,12.65
2023-04-15T13:38:23.862Z,12.82
2023-04-15T13:41:16.615Z,13.00
2023-04-15T13:44:06.412Z,12.12
2023-04-15T13:47:06.542Z,12.24
2023-04-15T13:49:56.336Z,12.30
2023-04-15T13:52:45.773Z,12.46
2023-04-15T13:55:35.286Z,12.58
2023-04-15T13:58:29.896Z,12.10
2023-04-15T14:01:17.842Z,12.59
2023-04-15T14:04:13.933Z,12.59
2023-04-15T14:07:10.765Z,12.46
2023-04-15T14:10:18.061Z,12.21
2023-04-15T14:30:37.454Z,11.86
2023-04-15T14:33:30.001Z,11.93
2023-04-15T14:36:24.567Z,11.87
2023-04-15T14:39:14.487Z,12.04
2023-04-15T14:42:02.710Z,12.10
2023-04-15T14:44:52.449Z,11.74
2023-04-15T14:47:45.447Z,11.61
2023-04-15T14:50:35.906Z,11.59
2023-04-15T14:53:31.153Z,11.60
2023-04-15T14:56:23.870Z,11.74
2023-04-15T14:59:11.369Z,11.43
2023-04-15T15:02:02.366Z,11.55
2023-04-15T15:04:54.731Z,11.82
2023-04-15T15:07:57.047Z,11.71
2023-04-15T15:10:48.418Z,11.72
2023-04-15T15:13:57.057Z,11.81
2023-04-15T15:17:02.468Z,11.64
2023-04-15T15:20:18.074Z,11.44
2023-04-15T15:23:09.985Z,11.93
2023-04-15T15:25:58.438Z,11.97
2023-04-15T15:28:47.459Z,11.78
2023-04-15T15:31:47.059Z,11.73
2023-04-15T15:34:34.849Z,11.61
2023-04-15T15:37:24.291Z,11.50
2023-04-15T15:40:23.888Z,11.09
2023-04-15T15:43:11.670Z,10.72
2023-04-15T15:46:00.757Z,10.83
2023-04-15T15:48:57.037Z,11.05
2023-04-15T15:51:54.172Z,11.03
2023-04-15T15:54:55.806Z,10.99
2023-04-15T15:57:58.504Z,10.67
2023-04-15T16:00:48.090Z,10.27
2023-04-15T16:03:35.996Z,10.19
2023-04-15T16:06:27.927Z,10.40
2023-04-15T16:09:25.454Z,10.32
2023-04-15T16:12:18.995Z,10.38
2023-04-15T16:15:15.751Z,10.49
2023-04-15T16:18:17.751Z,10.28
2023-04-15T16:21:11.006Z,10.31
2023-04-15T16:23:58.929Z,10.32
2023-04-15T16:26:49.068Z,10.33
2023-04-15T16:29:38.353Z,10.25
2023-04-15T16:32:26.680Z,10.25
2023-04-15T16:35:16.946Z,10.62
2023-04-15T16:38:32.428Z,10.22
2023-04-15T16:41:27.418Z,10.52
2023-04-15T16:44:27.913Z,10.21
2023-04-15T16:47:20.189Z,10.08
2023-04-15T16:50:11.738Z,10.54
2023-04-15T16:52:59.314Z,10.21
2023-04-15T16:55:46.934Z,10.57
2023-04-15T16:58:34.455Z,11.12
2023-04-15T17:01:25.651Z,10.73
2023-04-15T17:04:14.714Z,10.78
2023-04-15T17:07:02.286Z,10.23
2023-04-15T17:09:49.695Z,9.79
2023-04-15T17:12:40.069Z,9.75
2023-04-15T17:15:27.845Z,9.86
2023-04-15T17:18:18.853Z,9.79
2023-04-15T17:21:20.861Z,9.81
2023-04-15T17:24:25.516Z,9.79
2023-04-15T17:27:13.744Z,9.68
2023-04-15T17:30:01.790Z,9.57
2023-04-15T17:32:51.075Z,9.60
2023-04-15T17:35:39.955Z,9.43
2023-04-15T17:38:28.867Z,9.27
2023-04-15T17:41:16.447Z,9.22
2023-04-15T17:44:04.071Z,9.27
2023-04-15T17:46:51.746Z,9.35
2023-04-15T17:49:43.140Z,9.30
2023-04-15T17:52:30.733Z,9.21
2023-04-15T17:55:19.556Z,9.16
2023-04-15T17:58:39.590Z,9.23
2023-04-15T18:01:27.319Z,8.94
2023-04-15T18:04:15.029Z,8.93
2023-04-15T18:07:16.013Z,9.05
2023-04-15T18:10:20.421Z,9.07
2023-04-15T18:13:09.460Z,9.05
2023-04-15T18:16:16.443Z,9.09
2023-04-15T18:19:03.736Z,9.12
2023-04-15T18:22:00.452Z,8.99
2023-04-15T18:27:56.480Z,9.23
2023-04-15T18:30:45.159Z,8.88
2023-04-15T18:33:32.547Z,8.74
2023-04-15T18:36:20.931Z,8.76
2023-04-15T18:39:08.694Z,8.79
2023-04-15T18:41:57.711Z,8.55
2023-04-15T18:44:44.922Z,8.69
2023-04-15T18:47:33.889Z,8.47
2023-04-15T18:50:21.702Z,8.55
2023-04-15T18:53:09.323Z,8.60
2023-04-15T18:55:58.018Z,8.61
2023-04-15T18:59:23.054Z,8.51
2023-04-15T19:05:38.697Z,8.43
2023-04-15T19:08:26.360Z,8.41
2023-04-15T19:11:14.033Z,8.49
2023-04-15T19:14:01.601Z,8.51
2023-04-15T19:16:49.914Z,8.55
2023-04-15T19:19:49.438Z,8.53
2023-04-15T19:22:49.222Z,8.50
2023-04-15T19:25:38.471Z,8.28
2023-04-15T19:28:28.326Z,8.27
2023-04-15T19:31:23.613Z,8.35
2023-04-15T19:34:13.927Z,8.28
2023-04-15T19:37:01.653Z,8.39
2023-04-15T19:39:50.578Z,8.34
2023-04-15T19:42:38.686Z,8.26
2023-04-15T19:45:38.027Z,8.34
2023-04-15T19:48:26.054Z,8.40
2023-04-15T19:51:14.578Z,8.26
2023-04-15T19:54:31.265Z,8.23
2023-04-15T19:57:52.505Z,8.25
2023-04-15T20:01:01.669Z,8.27
2023-04-15T20:04:16.800Z,8.30
2023-04-15T20:07:06.654Z,8.29
2023-04-15T20:09:54.028Z,8.23
2023-04-15T20:12:51.328Z,8.29
2023-04-15T20:15:39.866Z,8.33
2023-04-15T20:18:27.343Z,8.42
2023-04-15T20:21:14.697Z,8.42
2023-04-15T20:24:02.527Z,8.47
2023-04-15T20:26:50.119Z,8.36
2023-04-15T20:29:45.167Z,8.47
2023-04-15T20:32:41.155Z,8.37
2023-04-15T20:35:31.169Z,8.34
2023-04-15T20:38:19.189Z,8.37
2023-04-15T20:41:37.692Z,8.46
2023-04-15T20:48:22.819Z,8.44
2023-04-15T20:51:10.448Z,8.44
2023-04-15T20:53:58.172Z,8.48
2023-04-15T20:56:45.512Z,8.47
2023-04-15T20:59:36.016Z,8.47
2023-04-15T21:02:24.367Z,8.42
2023-04-15T21:05:24.636Z,8.44
2023-04-15T21:08:52.709Z,8.44
2023-04-15T21:15:24.163Z,8.46
2023-04-15T21:18:11.825Z,8.50
2023-04-15T21:21:04.681Z,8.53
2023-04-15T21:24:05.983Z,8.57
2023-04-15T21:26:56.353Z,8.69
2023-04-15T21:29:51.198Z,8.63
2023-04-15T21:32:38.915Z,8.66
2023-04-15T21:35:53.706Z,8.63
2023-04-15T21:38:42.627Z,8.56
2023-04-15T21:41:31.195Z,8.53
2023-04-15T21:44:40.503Z,8.55
2023-04-15T21:47:30.804Z,8.56
2023-04-15T21:50:39.379Z,8.55
2023-04-15T21:53:45.129Z,8.53
2023-04-15T21:56:37.320Z,8.64
2023-04-15T21:59:55.582Z,8.62
2023-04-15T22:02:48.811Z,8.58
2023-04-15T22:05:36.917Z,8.65
2023-04-15T22:08:25.067Z,8.66
2023-04-15T22:11:29.321Z,8.57
2023-04-15T22:14:19.381Z,8.58
2023-04-15T22:17:09.400Z,8.61
2023-04-15T22:19:57.292Z,8.53
2023-04-15T22:22:45.019Z,8.41
2023-04-15T22:25:37.012Z,8.27
2023-04-15T22:28:24.606Z,8.29
2023-04-15T22:31:31.504Z,8.32
2023-04-15T22:34:32.602Z,8.24
2023-04-15T22:37:20.744Z,8.10
2023-04-15T22:40:13.472Z,8.04
2023-04-15T22:43:20.114Z,8.02
2023-04-15T22:46:44.466Z,8.01
2023-04-15T22:49:35.163Z,8.07
2023-04-15T22:52:35.009Z,7.99
2023-04-15T22:55:30.491Z,7.90
2023-04-15T22:58:37.234Z,7.90
2023-04-15T23:01:43.037Z,7.90
2023-04-15T23:04:36.852Z,7.83
2023-04-15T23:07:24.427Z,7.83
2023-04-15T23:10:30.298Z,7.79
2023-04-15T23:13:22.705Z,7.84
2023-04-15T23:16:10.496Z,7.79
2023-04-15T23:19:00.664Z,7.74
2023-04-15T23:21:54.521Z,7.78
2023-04-15T23:24:47.513Z,7.79
2023-04-15T23:27:40.420Z,7.76
2023-04-15T23:30:36.783Z,7.79
2023-04-15T23:33:27.047Z,7.72
2023-04-15T23:36:16.333Z,7.72
2023-04-15T23:39:09.232Z,7.71
2023-04-15T23:41:57.789Z,7.74
2023-04-15T23:45:28.726Z,7.75
2023-04-15T23:48:21.732Z,7.73
2023-04-15T23:51:48.586Z,7.73
2023-04-15T23:54:47.458Z,7.67
2023-04-15T23:57:35.445Z,7.68
